sensor_id;sensor_type;location;lat;lon;timestamp;P1;durP1;ratioP1;P2;durP2;ratioP2
39728;SDS011;25402;42.004;23.088;2022-12-24T00:01:02;106.65;;;41.53;;
39728;SDS011;25402;42.004;23.088;2022-12-24T00:03:29;115.55;;;42.75;;
39728;SDS011;25402;42.004;23.088;2022-12-24T00:05:56;117.80;;;42.22;;
39728;SDS011;25402;42.004;23.088;2022-12-24T00:08:23;100.93;;;41.58;;
39728;SDS011;25402;42.004;23.088;2022-12-24T00:10:51;117.65;;;45.60;;
39728;SDS011;25402;42.004;23.088;2022-12-24T00:13:20;106.28;;;43.33;;
39728;SDS011;25402;42.004;23.088;2022-12-24T00:15:47;105.45;;;42.53;;
39728;SDS011;25402;42.004;23.088;2022-12-24T00:18:14;91.57;;;39.60;;
39728;SDS011;25402;42.004;23.088;2022-12-24T00:20:44;90.32;;;36.42;;
39728;SDS011;25402;42.004;23.088;2022-12-24T00:23:12;87.10;;;38.15;;
39728;SDS011;25402;42.004;23.088;2022-12-24T00:25:39;92.65;;;39.13;;
39728;SDS011;25402;42.004;23.088;2022-12-24T00:28:06;98.07;;;37.70;;
39728;SDS011;25402;42.004;23.088;2022-12-24T00:30:36;94.63;;;37.08;;
39728;SDS011;25402;42.004;23.088;2022-12-24T00:33:03;92.72;;;36.05;;
39728;SDS011;25402;42.004;23.088;2022-12-24T00:35:32;86.53;;;35.38;;
39728;SDS011;25402;42.004;23.088;2022-12-24T00:37:59;88.93;;;35.38;;
39728;SDS011;25402;42.004;23.088;2022-12-24T00:40:27;83.35;;;34.13;;
39728;SDS011;25402;42.004;23.088;2022-12-24T00:42:55;87.10;;;33.90;;
39728;SDS011;25402;42.004;23.088;2022-12-24T00:45:22;79.22;;;33.22;;
39728;SDS011;25402;42.004;23.088;2022-12-24T00:47:50;83.50;;;34.25;;
39728;SDS011;25402;42.004;23.088;2022-12-24T00:50:17;92.18;;;34.92;;
39728;SDS011;25402;42.004;23.088;2022-12-24T00:52:44;91.10;;;35.85;;
39728;SDS011;25402;42.004;23.088;2022-12-24T00:55:11;90.85;;;35.25;;
39728;SDS011;25402;42.004;23.088;2022-12-24T00:57:38;88.50;;;35.58;;
39728;SDS011;25402;42.004;23.088;2022-12-24T01:00:05;83.93;;;34.30;;
39728;SDS011;25402;42.004;23.088;2022-12-24T01:02:33;85.35;;;36.00;;
39728;SDS011;25402;42.004;23.088;2022-12-24T01:05:01;86.25;;;35.22;;
39728;SDS011;25402;42.004;23.088;2022-12-24T01:07:37;83.78;;;35.17;;
39728;SDS011;25402;42.004;23.088;2022-12-24T01:10:06;96.90;;;39.70;;
39728;SDS011;25402;42.004;23.088;2022-12-24T01:12:34;93.03;;;39.85;;
39728;SDS011;25402;42.004;23.088;2022-12-24T01:15:01;93.93;;;36.90;;
39728;SDS011;25402;42.004;23.088;2022-12-24T01:17:29;84.03;;;35.45;;
39728;SDS011;25402;42.004;23.088;2022-12-24T01:19:57;84.82;;;35.38;;
39728;SDS011;25402;42.004;23.088;2022-12-24T01:22:25;98.45;;;35.22;;
39728;SDS011;25402;42.004;23.088;2022-12-24T01:24:52;81.47;;;35.00;;
39728;SDS011;25402;42.004;23.088;2022-12-24T01:27:19;88.65;;;35.17;;
39728;SDS011;25402;42.004;23.088;2022-12-24T01:29:46;105.88;;;34.47;;
39728;SDS011;25402;42.004;23.088;2022-12-24T01:32:13;82.88;;;32.08;;
39728;SDS011;25402;42.004;23.088;2022-12-24T01:34:40;96.30;;;35.65;;
39728;SDS011;25402;42.004;23.088;2022-12-24T01:37:07;82.80;;;34.20;;
39728;SDS011;25402;42.004;23.088;2022-12-24T01:39:35;94.72;;;34.58;;
39728;SDS011;25402;42.004;23.088;2022-12-24T01:42:08;79.57;;;33.13;;
39728;SDS011;25402;42.004;23.088;2022-12-24T01:48:06;82.07;;;33.70;;
39728;SDS011;25402;42.004;23.088;2022-12-24T01:50:41;73.55;;;33.42;;
39728;SDS011;25402;42.004;23.088;2022-12-24T01:53:09;73.15;;;34.30;;
39728;SDS011;25402;42.004;23.088;2022-12-24T01:55:39;79.30;;;33.78;;
39728;SDS011;25402;42.004;23.088;2022-12-24T01:58:07;103.55;;;40.53;;
39728;SDS011;25402;42.004;23.088;2022-12-24T02:00:36;94.68;;;37.13;;
39728;SDS011;25402;42.004;23.088;2022-12-24T02:03:03;96.50;;;38.28;;
39728;SDS011;25402;42.004;23.088;2022-12-24T02:05:31;92.65;;;38.13;;
39728;SDS011;25402;42.004;23.088;2022-12-24T02:08:02;86.72;;;36.47;;
39728;SDS011;25402;42.004;23.088;2022-12-24T02:10:31;91.55;;;36.90;;
39728;SDS011;25402;42.004;23.088;2022-12-24T02:12:59;86.90;;;35.85;;
39728;SDS011;25402;42.004;23.088;2022-12-24T02:15:30;90.10;;;36.30;;
39728;SDS011;25402;42.004;23.088;2022-12-24T02:18:03;80.85;;;34.50;;
39728;SDS011;25402;42.004;23.088;2022-12-24T02:20:40;75.32;;;32.78;;
39728;SDS011;25402;42.004;23.088;2022-12-24T02:23:42;82.25;;;32.22;;
39728;SDS011;25402;42.004;23.088;2022-12-24T02:26:32;65.90;;;27.80;;
39728;SDS011;25402;42.004;23.088;2022-12-24T02:29:25;66.90;;;28.38;;
39728;SDS011;25402;42.004;23.088;2022-12-24T02:32:07;62.63;;;24.95;;
39728;SDS011;25402;42.004;23.088;2022-12-24T02:34:39;65.10;;;27.52;;
39728;SDS011;25402;42.004;23.088;2022-12-24T02:37:14;70.97;;;28.25;;
39728;SDS011;25402;42.004;23.088;2022-12-24T02:39:45;69.93;;;27.00;;
39728;SDS011;25402;42.004;23.088;2022-12-24T02:42:17;70.90;;;27.85;;
39728;SDS011;25402;42.004;23.088;2022-12-24T02:44:49;65.60;;;25.80;;
39728;SDS011;25402;42.004;23.088;2022-12-24T02:47:23;67.53;;;25.25;;
39728;SDS011;25402;42.004;23.088;2022-12-24T02:49:51;70.93;;;24.98;;
39728;SDS011;25402;42.004;23.088;2022-12-24T02:52:28;61.75;;;25.30;;
39728;SDS011;25402;42.004;23.088;2022-12-24T02:54:57;64.43;;;24.60;;
39728;SDS011;25402;42.004;23.088;2022-12-24T02:57:27;59.67;;;25.58;;
39728;SDS011;25402;42.004;23.088;2022-12-24T03:00:04;62.80;;;23.55;;
39728;SDS011;25402;42.004;23.088;2022-12-24T03:02:44;68.82;;;24.50;;
39728;SDS011;25402;42.004;23.088;2022-12-24T03:05:19;62.15;;;25.00;;
39728;SDS011;25402;42.004;23.088;2022-12-24T03:07:59;58.35;;;23.38;;
39728;SDS011;25402;42.004;23.088;2022-12-24T03:10:33;63.35;;;24.85;;
39728;SDS011;25402;42.004;23.088;2022-12-24T03:13:07;62.63;;;23.17;;
39728;SDS011;25402;42.004;23.088;2022-12-24T03:15:39;55.83;;;23.57;;
39728;SDS011;25402;42.004;23.088;2022-12-24T03:18:09;53.72;;;24.23;;
39728;SDS011;25402;42.004;23.088;2022-12-24T03:20:39;58.25;;;23.45;;
39728;SDS011;25402;42.004;23.088;2022-12-24T03:23:09;55.30;;;22.17;;
39728;SDS011;25402;42.004;23.088;2022-12-24T03:25:37;57.80;;;24.55;;
39728;SDS011;25402;42.004;23.088;2022-12-24T03:28:06;61.90;;;22.60;;
39728;SDS011;25402;42.004;23.088;2022-12-24T03:30:37;55.95;;;24.35;;
39728;SDS011;25402;42.004;23.088;2022-12-24T03:33:05;60.45;;;24.45;;
39728;SDS011;25402;42.004;23.088;2022-12-24T03:35:33;56.90;;;24.45;;
39728;SDS011;25402;42.004;23.088;2022-12-24T03:38:00;60.63;;;23.67;;
39728;SDS011;25402;42.004;23.088;2022-12-24T03:40:27;55.85;;;24.05;;
39728;SDS011;25402;42.004;23.088;2022-12-24T03:42:54;62.50;;;24.35;;
39728;SDS011;25402;42.004;23.088;2022-12-24T03:45:21;61.83;;;23.98;;
39728;SDS011;25402;42.004;23.088;2022-12-24T03:47:48;65.32;;;24.38;;
39728;SDS011;25402;42.004;23.088;2022-12-24T03:50:15;62.33;;;24.25;;
39728;SDS011;25402;42.004;23.088;2022-12-24T03:52:43;62.15;;;25.55;;
39728;SDS011;25402;42.004;23.088;2022-12-24T03:55:10;61.78;;;26.35;;
39728;SDS011;25402;42.004;23.088;2022-12-24T03:57:37;70.40;;;27.90;;
39728;SDS011;25402;42.004;23.088;2022-12-24T04:00:05;73.85;;;28.92;;
39728;SDS011;25402;42.004;23.088;2022-12-24T04:02:32;91.28;;;30.15;;
39728;SDS011;25402;42.004;23.088;2022-12-24T04:04:59;75.97;;;29.95;;
39728;SDS011;25402;42.004;23.088;2022-12-24T04:07:26;84.60;;;32.63;;
39728;SDS011;25402;42.004;23.088;2022-12-24T04:09:54;76.03;;;28.45;;
39728;SDS011;25402;42.004;23.088;2022-12-24T04:12:21;80.70;;;28.85;;
39728;SDS011;25402;42.004;23.088;2022-12-24T04:14:48;77.68;;;30.08;;
39728;SDS011;25402;42.004;23.088;2022-12-24T04:17:15;71.40;;;28.67;;
39728;SDS011;25402;42.004;23.088;2022-12-24T04:19:42;75.30;;;29.08;;
39728;SDS011;25402;42.004;23.088;2022-12-24T04:22:09;82.68;;;29.33;;
39728;SDS011;25402;42.004;23.088;2022-12-24T04:24:36;77.20;;;29.30;;
39728;SDS011;25402;42.004;23.088;2022-12-24T04:27:04;73.00;;;28.83;;
39728;SDS011;25402;42.004;23.088;2022-12-24T04:29:31;81.47;;;28.58;;
39728;SDS011;25402;42.004;23.088;2022-12-24T04:31:58;73.68;;;28.48;;
39728;SDS011;25402;42.004;23.088;2022-12-24T04:34:25;71.80;;;28.33;;
39728;SDS011;25402;42.004;23.088;2022-12-24T04:36:52;67.88;;;27.60;;
39728;SDS011;25402;42.004;23.088;2022-12-24T04:39:19;65.88;;;29.02;;
39728;SDS011;25402;42.004;23.088;2022-12-24T04:41:46;72.45;;;27.52;;
39728;SDS011;25402;42.004;23.088;2022-12-24T04:44:14;66.70;;;27.17;;
39728;SDS011;25402;42.004;23.088;2022-12-24T04:46:41;71.50;;;25.63;;
39728;SDS011;25402;42.004;23.088;2022-12-24T04:49:08;74.05;;;26.85;;
39728;SDS011;25402;42.004;23.088;2022-12-24T04:51:36;62.20;;;25.80;;
39728;SDS011;25402;42.004;23.088;2022-12-24T04:54:03;66.50;;;26.58;;
39728;SDS011;25402;42.004;23.088;2022-12-24T04:56:31;66.18;;;24.58;;
39728;SDS011;25402;42.004;23.088;2022-12-24T04:58:58;62.15;;;25.05;;
39728;SDS011;25402;42.004;23.088;2022-12-24T05:01:28;68.50;;;24.52;;
39728;SDS011;25402;42.004;23.088;2022-12-24T05:03:57;68.10;;;25.73;;
39728;SDS011;25402;42.004;23.088;2022-12-24T05:06:26;70.38;;;25.48;;
39728;SDS011;25402;42.004;23.088;2022-12-24T05:08:55;88.88;;;27.50;;
39728;SDS011;25402;42.004;23.088;2022-12-24T05:11:23;69.35;;;26.13;;
39728;SDS011;25402;42.004;23.088;2022-12-24T05:13:50;90.57;;;29.05;;
39728;SDS011;25402;42.004;23.088;2022-12-24T05:16:18;77.63;;;25.50;;
39728;SDS011;25402;42.004;23.088;2022-12-24T05:18:48;73.82;;;25.58;;
39728;SDS011;25402;42.004;23.088;2022-12-24T05:21:17;86.40;;;26.50;;
39728;SDS011;25402;42.004;23.088;2022-12-24T05:23:45;93.43;;;27.23;;
39728;SDS011;25402;42.004;23.088;2022-12-24T05:26:30;112.07;;;27.33;;
39728;SDS011;25402;42.004;23.088;2022-12-24T05:29:00;94.18;;;28.95;;
39728;SDS011;25402;42.004;23.088;2022-12-24T05:31:29;92.35;;;26.48;;
39728;SDS011;25402;42.004;23.088;2022-12-24T05:33:59;108.35;;;29.33;;
39728;SDS011;25402;42.004;23.088;2022-12-24T05:36:27;92.95;;;28.60;;
39728;SDS011;25402;42.004;23.088;2022-12-24T05:38:54;98.47;;;30.20;;
39728;SDS011;25402;42.004;23.088;2022-12-24T05:41:21;104.93;;;26.83;;
39728;SDS011;25402;42.004;23.088;2022-12-24T05:43:48;86.00;;;26.63;;
39728;SDS011;25402;42.004;23.088;2022-12-24T05:46:16;80.90;;;26.42;;
39728;SDS011;25402;42.004;23.088;2022-12-24T05:48:44;88.30;;;26.98;;
39728;SDS011;25402;42.004;23.088;2022-12-24T05:51:13;109.00;;;28.30;;
39728;SDS011;25402;42.004;23.088;2022-12-24T05:53:42;97.00;;;29.63;;
39728;SDS011;25402;42.004;23.088;2022-12-24T05:56:10;102.32;;;29.70;;
39728;SDS011;25402;42.004;23.088;2022-12-24T05:58:38;107.53;;;28.20;;
39728;SDS011;25402;42.004;23.088;2022-12-24T06:01:06;147.68;;;30.55;;
39728;SDS011;25402;42.004;23.088;2022-12-24T06:03:34;104.68;;;28.60;;
39728;SDS011;25402;42.004;23.088;2022-12-24T06:06:02;115.95;;;27.02;;
39728;SDS011;25402;42.004;23.088;2022-12-24T06:08:32;124.45;;;29.35;;
39728;SDS011;25402;42.004;23.088;2022-12-24T06:11:01;147.27;;;28.48;;
39728;SDS011;25402;42.004;23.088;2022-12-24T06:13:29;131.45;;;31.02;;
39728;SDS011;25402;42.004;23.088;2022-12-24T06:15:57;122.07;;;31.33;;
39728;SDS011;25402;42.004;23.088;2022-12-24T06:18:25;146.23;;;32.97;;
39728;SDS011;25402;42.004;23.088;2022-12-24T06:20:54;145.60;;;34.10;;
39728;SDS011;25402;42.004;23.088;2022-12-24T06:23:22;121.38;;;32.78;;
39728;SDS011;25402;42.004;23.088;2022-12-24T06:25:51;119.28;;;33.78;;
39728;SDS011;25402;42.004;23.088;2022-12-24T06:28:18;131.80;;;34.75;;
39728;SDS011;25402;42.004;23.088;2022-12-24T06:30:45;112.43;;;32.15;;
39728;SDS011;25402;42.004;23.088;2022-12-24T06:33:13;119.60;;;33.45;;
39728;SDS011;25402;42.004;23.088;2022-12-24T06:35:40;106.47;;;33.47;;
39728;SDS011;25402;42.004;23.088;2022-12-24T06:38:07;102.53;;;32.63;;
39728;SDS011;25402;42.004;23.088;2022-12-24T06:40:34;105.55;;;33.15;;
39728;SDS011;25402;42.004;23.088;2022-12-24T06:43:05;105.32;;;34.47;;
39728;SDS011;25402;42.004;23.088;2022-12-24T06:45:32;113.68;;;37.63;;
39728;SDS011;25402;42.004;23.088;2022-12-24T06:47:59;112.78;;;39.22;;
39728;SDS011;25402;42.004;23.088;2022-12-24T06:50:26;119.05;;;40.25;;
39728;SDS011;25402;42.004;23.088;2022-12-24T06:52:53;123.10;;;38.28;;
39728;SDS011;25402;42.004;23.088;2022-12-24T06:55:20;126.00;;;41.70;;
39728;SDS011;25402;42.004;23.088;2022-12-24T06:57:47;109.20;;;40.20;;
39728;SDS011;25402;42.004;23.088;2022-12-24T07:00:16;124.88;;;41.75;;
39728;SDS011;25402;42.004;23.088;2022-12-24T07:02:43;107.43;;;39.55;;
39728;SDS011;25402;42.004;23.088;2022-12-24T07:05:11;119.85;;;40.30;;
39728;SDS011;25402;42.004;23.088;2022-12-24T07:07:39;103.43;;;37.55;;
39728;SDS011;25402;42.004;23.088;2022-12-24T07:10:09;106.43;;;38.28;;
39728;SDS011;25402;42.004;23.088;2022-12-24T07:12:37;120.28;;;37.83;;
39728;SDS011;25402;42.004;23.088;2022-12-24T07:15:05;112.75;;;39.08;;
39728;SDS011;25402;42.004;23.088;2022-12-24T07:17:34;100.85;;;36.10;;
39728;SDS011;25402;42.004;23.088;2022-12-24T07:20:01;115.25;;;37.03;;
39728;SDS011;25402;42.004;23.088;2022-12-24T07:22:29;118.40;;;35.65;;
39728;SDS011;25402;42.004;23.088;2022-12-24T07:24:55;104.35;;;34.08;;
39728;SDS011;25402;42.004;23.088;2022-12-24T07:27:22;105.28;;;34.35;;
39728;SDS011;25402;42.004;23.088;2022-12-24T07:29:49;98.13;;;33.50;;
39728;SDS011;25402;42.004;23.088;2022-12-24T07:32:16;110.65;;;33.85;;
39728;SDS011;25402;42.004;23.088;2022-12-24T07:34:46;111.38;;;35.33;;
39728;SDS011;25402;42.004;23.088;2022-12-24T07:37:12;103.63;;;33.10;;
39728;SDS011;25402;42.004;23.088;2022-12-24T07:39:39;109.80;;;35.30;;
39728;SDS011;25402;42.004;23.088;2022-12-24T07:42:06;119.50;;;36.72;;
39728;SDS011;25402;42.004;23.088;2022-12-24T07:44:33;119.00;;;35.45;;
39728;SDS011;25402;42.004;23.088;2022-12-24T07:47:00;117.50;;;37.53;;
39728;SDS011;25402;42.004;23.088;2022-12-24T07:49:27;128.05;;;39.53;;
39728;SDS011;25402;42.004;23.088;2022-12-24T07:51:55;120.22;;;38.17;;
39728;SDS011;25402;42.004;23.088;2022-12-24T07:54:22;118.25;;;36.35;;
39728;SDS011;25402;42.004;23.088;2022-12-24T07:56:49;129.50;;;38.65;;
39728;SDS011;25402;42.004;23.088;2022-12-24T07:59:16;152.23;;;41.00;;
39728;SDS011;25402;42.004;23.088;2022-12-24T08:01:43;116.47;;;38.40;;
39728;SDS011;25402;42.004;23.088;2022-12-24T08:04:10;114.25;;;37.22;;
39728;SDS011;25402;42.004;23.088;2022-12-24T08:06:37;119.35;;;39.50;;
39728;SDS011;25402;42.004;23.088;2022-12-24T08:09:05;138.18;;;43.05;;
39728;SDS011;25402;42.004;23.088;2022-12-24T08:11:32;129.05;;;44.10;;
39728;SDS011;25402;42.004;23.088;2022-12-24T08:13:59;140.40;;;45.80;;
39728;SDS011;25402;42.004;23.088;2022-12-24T08:16:26;133.20;;;42.15;;
39728;SDS011;25402;42.004;23.088;2022-12-24T08:18:53;125.18;;;42.40;;
39728;SDS011;25402;42.004;23.088;2022-12-24T08:21:20;117.63;;;38.88;;
39728;SDS011;25402;42.004;23.088;2022-12-24T08:23:47;116.63;;;38.92;;
39728;SDS011;25402;42.004;23.088;2022-12-24T08:26:15;105.70;;;36.78;;
39728;SDS011;25402;42.004;23.088;2022-12-24T08:28:42;110.25;;;35.60;;
39728;SDS011;25402;42.004;23.088;2022-12-24T08:31:09;96.78;;;32.67;;
39728;SDS011;25402;42.004;23.088;2022-12-24T08:33:36;93.55;;;32.58;;
39728;SDS011;25402;42.004;23.088;2022-12-24T08:36:03;94.18;;;32.58;;
39728;SDS011;25402;42.004;23.088;2022-12-24T08:38:30;91.00;;;32.42;;
39728;SDS011;25402;42.004;23.088;2022-12-24T08:40:58;96.60;;;33.40;;
39728;SDS011;25402;42.004;23.088;2022-12-24T08:43:26;103.68;;;34.05;;
39728;SDS011;25402;42.004;23.088;2022-12-24T08:45:53;95.53;;;32.95;;
39728;SDS011;25402;42.004;23.088;2022-12-24T08:48:20;99.50;;;33.10;;
39728;SDS011;25402;42.004;23.088;2022-12-24T08:50:47;84.30;;;33.72;;
39728;SDS011;25402;42.004;23.088;2022-12-24T08:53:13;98.63;;;32.85;;
39728;SDS011;25402;42.004;23.088;2022-12-24T08:55:40;90.10;;;33.65;;
39728;SDS011;25402;42.004;23.088;2022-12-24T08:58:07;89.63;;;32.25;;
39728;SDS011;25402;42.004;23.088;2022-12-24T09:00:36;85.65;;;31.58;;
39728;SDS011;25402;42.004;23.088;2022-12-24T09:03:03;80.60;;;31.15;;
39728;SDS011;25402;42.004;23.088;2022-12-24T09:05:30;86.15;;;33.35;;
39728;SDS011;25402;42.004;23.088;2022-12-24T09:07:57;95.35;;;32.97;;
39728;SDS011;25402;42.004;23.088;2022-12-24T09:10:24;83.45;;;31.27;;
39728;SDS011;25402;42.004;23.088;2022-12-24T09:12:51;81.30;;;31.20;;
39728;SDS011;25402;42.004;23.088;2022-12-24T09:15:18;83.85;;;31.65;;
39728;SDS011;25402;42.004;23.088;2022-12-24T09:17:46;82.55;;;29.52;;
39728;SDS011;25402;42.004;23.088;2022-12-24T09:20:13;82.00;;;30.35;;
39728;SDS011;25402;42.004;23.088;2022-12-24T09:22:40;82.50;;;30.55;;
39728;SDS011;25402;42.004;23.088;2022-12-24T09:25:07;84.13;;;30.83;;
39728;SDS011;25402;42.004;23.088;2022-12-24T09:27:35;85.32;;;33.65;;
39728;SDS011;25402;42.004;23.088;2022-12-24T09:30:03;92.93;;;34.45;;
39728;SDS011;25402;42.004;23.088;2022-12-24T09:32:30;107.03;;;38.83;;
39728;SDS011;25402;42.004;23.088;2022-12-24T09:34:59;116.03;;;41.53;;
39728;SDS011;25402;42.004;23.088;2022-12-24T09:37:26;147.18;;;49.83;;
39728;SDS011;25402;42.004;23.088;2022-12-24T09:39:52;169.70;;;58.47;;
39728;SDS011;25402;42.004;23.088;2022-12-24T09:42:22;179.05;;;63.70;;
39728;SDS011;25402;42.004;23.088;2022-12-24T09:45:00;180.57;;;61.38;;
39728;SDS011;25402;42.004;23.088;2022-12-24T09:47:32;170.20;;;56.47;;
39728;SDS011;25402;42.004;23.088;2022-12-24T09:50:06;151.13;;;54.13;;
39728;SDS011;25402;42.004;23.088;2022-12-24T09:52:49;140.90;;;51.85;;
39728;SDS011;25402;42.004;23.088;2022-12-24T09:55:19;134.48;;;49.53;;
39728;SDS011;25402;42.004;23.088;2022-12-24T09:57:52;115.35;;;44.92;;
39728;SDS011;25402;42.004;23.088;2022-12-24T10:00:21;117.80;;;45.47;;
39728;SDS011;25402;42.004;23.088;2022-12-24T10:02:52;123.47;;;43.85;;
39728;SDS011;25402;42.004;23.088;2022-12-24T10:05:25;123.63;;;44.85;;
39728;SDS011;25402;42.004;23.088;2022-12-24T10:08:01;113.18;;;41.95;;
39728;SDS011;25402;42.004;23.088;2022-12-24T10:10:36;127.55;;;46.70;;
39728;SDS011;25402;42.004;23.088;2022-12-24T10:13:13;112.07;;;41.03;;
39728;SDS011;25402;42.004;23.088;2022-12-24T10:15:49;113.55;;;44.03;;
39728;SDS011;25402;42.004;23.088;2022-12-24T10:18:25;117.38;;;45.17;;
39728;SDS011;25402;42.004;23.088;2022-12-24T10:21:02;104.05;;;43.03;;
39728;SDS011;25402;42.004;23.088;2022-12-24T10:23:37;107.30;;;42.53;;
39728;SDS011;25402;42.004;23.088;2022-12-24T10:26:13;102.70;;;40.47;;
39728;SDS011;25402;42.004;23.088;2022-12-24T10:28:44;82.53;;;33.75;;
39728;SDS011;25402;42.004;23.088;2022-12-24T10:31:14;80.03;;;30.92;;
39728;SDS011;25402;42.004;23.088;2022-12-24T10:33:41;69.35;;;28.52;;
39728;SDS011;25402;42.004;23.088;2022-12-24T10:36:13;64.88;;;28.42;;
39728;SDS011;25402;42.004;23.088;2022-12-24T10:38:42;69.65;;;28.30;;
39728;SDS011;25402;42.004;23.088;2022-12-24T10:41:10;64.70;;;28.50;;
39728;SDS011;25402;42.004;23.088;2022-12-24T10:43:38;62.15;;;27.65;;
39728;SDS011;25402;42.004;23.088;2022-12-24T10:46:11;66.03;;;27.38;;
39728;SDS011;25402;42.004;23.088;2022-12-24T10:48:44;58.72;;;26.75;;
39728;SDS011;25402;42.004;23.088;2022-12-24T10:51:20;57.25;;;25.65;;
39728;SDS011;25402;42.004;23.088;2022-12-24T10:53:58;59.10;;;26.35;;
39728;SDS011;25402;42.004;23.088;2022-12-24T10:56:31;52.00;;;25.70;;
39728;SDS011;25402;42.004;23.088;2022-12-24T10:58:58;57.30;;;26.27;;
39728;SDS011;25402;42.004;23.088;2022-12-24T11:04:13;64.32;;;27.50;;
39728;SDS011;25402;42.004;23.088;2022-12-24T11:06:51;61.65;;;26.80;;
39728;SDS011;25402;42.004;23.088;2022-12-24T11:09:20;58.15;;;26.27;;
39728;SDS011;25402;42.004;23.088;2022-12-24T11:11:49;55.42;;;26.60;;
39728;SDS011;25402;42.004;23.088;2022-12-24T11:14:16;57.00;;;26.65;;
39728;SDS011;25402;42.004;23.088;2022-12-24T11:16:47;54.80;;;25.27;;
39728;SDS011;25402;42.004;23.088;2022-12-24T11:19:17;52.15;;;24.67;;
39728;SDS011;25402;42.004;23.088;2022-12-24T11:21:54;53.97;;;24.97;;
39728;SDS011;25402;42.004;23.088;2022-12-24T11:24:28;55.38;;;23.58;;
39728;SDS011;25402;42.004;23.088;2022-12-24T11:30:04;62.88;;;26.65;;
39728;SDS011;25402;42.004;23.088;2022-12-24T11:32:49;57.38;;;25.10;;
39728;SDS011;25402;42.004;23.088;2022-12-24T11:35:17;73.97;;;31.30;;
39728;SDS011;25402;42.004;23.088;2022-12-24T11:37:48;85.82;;;36.72;;
39728;SDS011;25402;42.004;23.088;2022-12-24T11:40:35;91.47;;;38.53;;
39728;SDS011;25402;42.004;23.088;2022-12-24T11:43:04;99.32;;;43.80;;
39728;SDS011;25402;42.004;23.088;2022-12-24T11:45:31;98.28;;;43.10;;
39728;SDS011;25402;42.004;23.088;2022-12-24T11:47:59;102.90;;;45.15;;
39728;SDS011;25402;42.004;23.088;2022-12-24T11:50:27;104.05;;;43.53;;
39728;SDS011;25402;42.004;23.088;2022-12-24T11:52:59;95.13;;;41.55;;
39728;SDS011;25402;42.004;23.088;2022-12-24T11:55:34;106.05;;;45.65;;
39728;SDS011;25402;42.004;23.088;2022-12-24T11:58:11;83.68;;;37.70;;
39728;SDS011;25402;42.004;23.088;2022-12-24T12:00:44;70.53;;;32.20;;
39728;SDS011;25402;42.004;23.088;2022-12-24T12:03:23;74.18;;;30.27;;
39728;SDS011;25402;42.004;23.088;2022-12-24T12:05:55;72.45;;;27.83;;
39728;SDS011;25402;42.004;23.088;2022-12-24T12:08:26;65.57;;;27.35;;
39728;SDS011;25402;42.004;23.088;2022-12-24T12:10:55;60.83;;;27.08;;
39728;SDS011;25402;42.004;23.088;2022-12-24T12:13:26;63.25;;;27.17;;
39728;SDS011;25402;42.004;23.088;2022-12-24T12:16:00;63.17;;;25.42;;
39728;SDS011;25402;42.004;23.088;2022-12-24T12:18:37;50.42;;;24.65;;
39728;SDS011;25402;42.004;23.088;2022-12-24T12:21:07;54.70;;;23.95;;
39728;SDS011;25402;42.004;23.088;2022-12-24T12:23:42;46.38;;;23.08;;
39728;SDS011;25402;42.004;23.088;2022-12-24T12:26:14;51.65;;;23.35;;
39728;SDS011;25402;42.004;23.088;2022-12-24T12:28:46;48.17;;;21.73;;
39728;SDS011;25402;42.004;23.088;2022-12-24T12:31:18;50.20;;;21.98;;
39728;SDS011;25402;42.004;23.088;2022-12-24T12:33:51;45.38;;;22.15;;
39728;SDS011;25402;42.004;23.088;2022-12-24T12:36:23;50.58;;;21.70;;
39728;SDS011;25402;42.004;23.088;2022-12-24T12:38:53;43.72;;;20.85;;
39728;SDS011;25402;42.004;23.088;2022-12-24T12:41:26;49.58;;;22.13;;
39728;SDS011;25402;42.004;23.088;2022-12-24T12:44:09;53.73;;;23.37;;
39728;SDS011;25402;42.004;23.088;2022-12-24T12:46:57;59.20;;;26.45;;
39728;SDS011;25402;42.004;23.088;2022-12-24T12:49:38;41.35;;;19.73;;
39728;SDS011;25402;42.004;23.088;2022-12-24T12:52:15;39.85;;;19.73;;
39728;SDS011;25402;42.004;23.088;2022-12-24T12:55:00;56.85;;;20.48;;
39728;SDS011;25402;42.004;23.088;2022-12-24T12:57:43;47.08;;;20.40;;
39728;SDS011;25402;42.004;23.088;2022-12-24T13:00:13;46.45;;;19.70;;
39728;SDS011;25402;42.004;23.088;2022-12-24T13:02:51;43.58;;;18.75;;
39728;SDS011;25402;42.004;23.088;2022-12-24T13:05:55;44.28;;;16.50;;
39728;SDS011;25402;42.004;23.088;2022-12-24T13:09:00;32.13;;;14.77;;
39728;SDS011;25402;42.004;23.088;2022-12-24T13:11:48;35.55;;;14.52;;
39728;SDS011;25402;42.004;23.088;2022-12-24T13:14:39;27.83;;;14.73;;
39728;SDS011;25402;42.004;23.088;2022-12-24T13:20:20;38.83;;;15.30;;
39728;SDS011;25402;42.004;23.088;2022-12-24T13:22:55;35.97;;;16.00;;
39728;SDS011;25402;42.004;23.088;2022-12-24T13:25:29;31.58;;;17.20;;
39728;SDS011;25402;42.004;23.088;2022-12-24T13:28:15;37.13;;;18.30;;
39728;SDS011;25402;42.004;23.088;2022-12-24T13:30:43;44.13;;;22.00;;
39728;SDS011;25402;42.004;23.088;2022-12-24T13:33:10;55.22;;;26.02;;
39728;SDS011;25402;42.004;23.088;2022-12-24T13:38:38;61.05;;;27.20;;
39728;SDS011;25402;42.004;23.088;2022-12-24T13:44:23;60.17;;;28.98;;
39728;SDS011;25402;42.004;23.088;2022-12-24T13:46:57;67.97;;;29.67;;
39728;SDS011;25402;42.004;23.088;2022-12-24T13:49:30;63.35;;;29.52;;
39728;SDS011;25402;42.004;23.088;2022-12-24T13:55:03;63.80;;;30.08;;
39728;SDS011;25402;42.004;23.088;2022-12-24T13:57:35;65.95;;;28.75;;
39728;SDS011;25402;42.004;23.088;2022-12-24T14:00:07;65.07;;;27.95;;
39728;SDS011;25402;42.004;23.088;2022-12-24T14:02:54;64.10;;;28.13;;
39728;SDS011;25402;42.004;23.088;2022-12-24T14:05:26;61.17;;;27.45;;
39728;SDS011;25402;42.004;23.088;2022-12-24T14:07:58;61.58;;;29.55;;
39728;SDS011;25402;42.004;23.088;2022-12-24T14:10:28;80.13;;;31.75;;
39728;SDS011;25402;42.004;23.088;2022-12-24T14:12:57;76.03;;;35.50;;
39728;SDS011;25402;42.004;23.088;2022-12-24T14:18:26;83.57;;;34.20;;
39728;SDS011;25402;42.004;23.088;2022-12-24T14:20:55;71.95;;;31.35;;
39728;SDS011;25402;42.004;23.088;2022-12-24T14:23:27;85.40;;;36.53;;
39728;SDS011;25402;42.004;23.088;2022-12-24T14:26:01;90.70;;;40.53;;
39728;SDS011;25402;42.004;23.088;2022-12-24T14:28:30;89.57;;;40.05;;
39728;SDS011;25402;42.004;23.088;2022-12-24T14:31:02;85.57;;;39.37;;
39728;SDS011;25402;42.004;23.088;2022-12-24T14:33:33;86.80;;;38.42;;
39728;SDS011;25402;42.004;23.088;2022-12-24T14:36:01;85.75;;;37.17;;
39728;SDS011;25402;42.004;23.088;2022-12-24T14:38:28;76.85;;;34.45;;
39728;SDS011;25402;42.004;23.088;2022-12-24T14:40:59;80.65;;;35.85;;
39728;SDS011;25402;42.004;23.088;2022-12-24T14:43:41;77.28;;;35.97;;
39728;SDS011;25402;42.004;23.088;2022-12-24T14:46:20;122.55;;;48.95;;
39728;SDS011;25402;42.004;23.088;2022-12-24T14:48:52;101.18;;;40.33;;